Time;durP1;ratioP1;P1;durP2;ratioP2;P2;SDS_P1;SDS_P2;PMS_P1;PMS_P2;Temp;Humidity;BMP_temperature;BMP_pressure;BME280_temperature;BME280_humidity;BME280_pressure;Samples;Min_cycle;Max_cycle;Signal;HPM_P1;HPM_P2
2022/05/29 03:53:23;;;;;;;;;;;;;;;7.15;91.21;99431.66;6182234;23;20299;-92
2022/05/29 04:05:54;;;;;;;;;;;;;;;7.18;91.40;99445.59;6280591;22;19965;-93
2022/05/29 04:13:55;;;;;;;;;;;;;;;7.34;92.35;99442.41;6280676;22;20330;-93
2022/05/29 04:16:26;;;;;;;;;;;;;;;7.24;92.67;99447.16;6307584;22;19934;-91
2022/05/29 04:18:54;;;;;;;;;;;;;;;7.33;93.06;99446.84;6305768;22;19915;-89
2022/05/29 04:21:19;;;;;;;;;;;;;;;7.31;92.99;99443.41;6279557;22;19941;-90
2022/05/29 04:23:44;;;;;;;;;;;;;;;7.34;93.39;99438.03;6307197;22;19908;-89
2022/05/29 04:26:14;;;;;;;;;;;;;;;7.30;93.33;99441.66;6307374;22;19937;-89
2022/05/29 04:28:39;;;;;;;;;;;;;;;7.30;93.64;99448.72;6279431;22;19956;-90
2022/05/29 04:31:05;;;;;;;;;;;;;;;7.28;93.79;99444.34;6306808;22;19960;-90
2022/05/29 04:33:35;;;;;;;;;;;;;;;7.17;94.17;99446.50;6306591;22;19918;-89
2022/05/29 04:36:00;;;;;;;;;;;;;;;7.29;94.75;99453.13;6279349;22;19989;-89
2022/05/29 04:38:27;;;;;;;;;;;;;;;7.21;94.71;99444.63;6307151;22;20341;-89
2022/05/29 04:40:53;;;;;;;;;;;;;;;7.26;95.12;99454.09;6307265;22;19917;-90
2022/05/29 04:43:19;;;;;;;;;;;;;;;7.19;95.13;99449.94;6279724;22;20274;-90
2022/05/29 04:45:46;;;;;;;;;;;;;;;7.22;95.49;99452.47;6279719;22;19911;-91
2022/05/29 04:48:16;;;;;;;;;;;;;;;7.21;95.53;99457.78;6306948;22;19907;-91
2022/05/29 04:50:41;;;;;;;;;;;;;;;7.24;95.97;99453.31;6277666;22;19921;-91
2022/05/29 04:53:07;;;;;;;;;;;;;;;7.20;95.78;99456.09;6279484;22;19989;-90
2022/05/29 04:55:32;;;;;;;;;;;;;;;7.22;96.10;99454.25;6307192;22;20230;-92
2022/05/29 04:57:59;;;;;;;;;;;;;;;7.19;95.78;99455.22;6308009;22;20216;-95
2022/05/29 05:00:24;;;;;;;;;;;;;;;7.22;95.79;99452.47;6317507;22;19918;-96
2022/05/29 05:02:49;;;;;;;;;;;;;;;7.19;95.58;99451.72;6313068;22;19915;-94
2022/05/29 05:05:15;;;;;;;;;;;;;;;7.21;96.03;99452.53;6312207;22;19961;-94
2022/05/29 05:07:41;;;;;;;;;;;;;;;7.15;95.77;99442.19;6316814;22;19937;-95
2022/05/29 12:46:17;;;;;;;;;;;;;;;6.99;89.53;99237.25;6294109;22;19945;-93
2022/05/29 12:48:45;;;;;;;;;;;;;;;7.11;89.58;99245.63;6250723;22;20353;-93
2022/05/29 12:54:35;;;;;;;;;;;;;;;7.06;89.75;99243.16;6210188;23;20346;-94
2022/05/29 12:57:29;;;;;;;;;;;;;;;;;;;;;
2022/05/29 13:00:11;;;;;;;;;;;;;;;7.05;89.83;99239.69;6245378;23;20327;-93
2022/05/29 13:03:08;;;;;;;;;;;;;;;7.13;89.50;99241.16;6218850;23;19943;-92
2022/05/29 13:05:52;;;;;;;;;;;;;;;7.18;89.36;99226.91;6218996;23;19915;-91
2022/05/29 13:11:01;;;;;;;;;;;;;;;7.17;89.11;99240.13;6291399;22;19919;-93
2022/05/29 13:16:28;;;;;;;;;;;;;;;7.14;88.80;99235.81;6303921;22;19923;-91
2022/05/29 13:22:04;;;;;;;;;;;;;;;7.08;88.94;99234.28;6306968;22;19957;-89
2022/05/29 13:31:14;;;;;;;;;;;;;;;7.05;89.30;99221.22;6280032;22;19922;-90
2022/05/29 13:33:42;;;;;;;;;;;;;;;7.15;89.45;99212.97;6279317;22;19915;-90
2022/05/29 13:36:24;;;;;;;;;;;;;;;7.06;89.30;99212.41;6306656;22;19946;-89
2022/05/29 13:38:49;;;;;;;;;;;;;;;7.15;89.55;99226.13;6278251;22;20322;-90
2022/05/29 13:41:29;;;;;;;;;;;;;;;7.21;89.65;99220.63;6279376;22;19918;-90
2022/05/29 13:43:55;;;;;;;;;;;;;;;7.13;89.54;99220.06;6277893;22;20323;-91
2022/05/29 13:46:27;;;;;;;;;;;;;;;7.13;89.96;99220.06;6306533;22;20025;-92
2022/05/29 13:49:26;;;;;;;;;;;;;;;;;;;;;
2022/05/29 13:51:53;;;;;;;;;;;;;;;7.07;90.12;99214.13;6308248;22;19993;-90
2022/05/29 13:54:24;;;;;;;;;;;;;;;7.04;90.18;99214.22;6281095;22;19926;-92
2022/05/29 13:56:55;;;;;;;;;;;;;;;7.04;90.04;99208.97;6308655;22;19965;-90
2022/05/29 14:05:34;;;;;;;;;;;;;;;7.09;89.90;99206.16;6308576;22;19961;-92
2022/05/29 14:08:20;;;;;;;;;;;;;;;7.01;89.97;99202.97;6281058;22;19915;-91
2022/05/29 14:10:47;;;;;;;;;;;;;;;7.13;90.26;99199.84;6259602;22;19911;-89
2022/05/29 14:13:28;;;;;;;;;;;;;;;7.01;89.96;99197.69;6307574;22;20383;-93
2022/05/29 14:15:57;;;;;;;;;;;;;;;7.05;90.18;99194.88;6308111;22;20347;-92
2022/05/29 14:21:44;;;;;;;;;;;;;;;7.03;90.11;99195.84;6308071;22;20254;-89
2022/05/29 14:24:31;;;;;;;;;;;;;;;7.27;89.78;99200.19;6280909;22;19919;-90
2022/05/29 14:27:26;;;;;;;;;;;;;;;7.21;89.51;99200.44;6280770;22;20386;-91
2022/05/29 14:30:18;;;;;;;;;;;;;;;7.24;89.85;99197.69;6289188;22;19937;-91
2022/05/29 14:32:53;;;;;;;;;;;;;;;7.35;89.75;99196.41;6308339;22;19914;-90
2022/05/29 14:35:21;;;;;;;;;;;;;;;7.31;90.16;99206.19;6308338;22;19918;-91
2022/05/29 14:37:55;;;;;;;;;;;;;;;7.35;90.51;99197.25;6280783;22;19911;-90
2022/05/29 14:40:31;;;;;;;;;;;;;;;7.22;90.35;99201.28;6308530;22;19922;-92
2022/05/29 14:43:09;;;;;;;;;;;;;;;7.21;90.77;99192.53;6306982;22;19968;-90
2022/05/29 14:45:39;;;;;;;;;;;;;;;7.32;90.81;99193.88;6281111;22;20212;-91
2022/05/29 14:48:25;;;;;;;;;;;;;;;7.23;90.54;99187.19;6281097;22;19934;-91
2022/05/29 14:53:59;;;;;;;;;;;;;;;7.32;90.84;99183.34;6308327;22;19917;-91
2022/05/29 14:57:10;;;;;;;;;;;;;;;7.27;90.76;99183.50;6308043;22;19911;-92
2022/05/29 14:59:46;;;;;;;;;;;;;;;7.39;90.94;99180.41;6280862;22;19917;-95
2022/05/29 15:02:20;;;;;;;;;;;;;;;7.29;90.68;99186.94;6281058;22;19911;-95
2022/05/29 15:04:53;;;;;;;;;;;;;;;7.40;90.83;99182.13;6308967;22;19907;-92
2022/05/29 15:12:52;;;;;;;;;;;;;;;7.29;90.93;99165.84;6299138;22;20322;-90
2022/05/29 15:15:27;;;;;;;;;;;;;;;7.27;90.87;99159.78;6280003;22;19919;-90
2022/05/29 15:18:05;;;;;;;;;;;;;;;7.27;90.71;99165.06;6280522;22;19918;-91
2022/05/29 15:26:13;;;;;;;;;;;;;;;7.35;90.70;99165.63;6277036;22;19937;-90
2022/05/29 15:28:48;;;;;;;;;;;;;;;7.38;91.02;99148.84;6248648;22;19915;-92
2022/05/29 15:31:22;;;;;;;;;;;;;;;7.34;90.80;99153.38;6249960;22;19913;-90
2022/05/29 15:34:05;;;;;;;;;;;;;;;7.33;90.88;99150.81;6249996;22;19925;-87
2022/05/29 15:36:30;;;;;;;;;;;;;;;7.30;91.27;99146.50;6249369;22;19911;-90
2022/05/29 15:42:04;;;;;;;;;;;;;;;7.35;90.83;99147.16;6246489;22;20277;-91
2022/05/29 15:44:29;;;;;;;;;;;;;;;7.39;90.91;99146.13;6276570;22;19915;-92
2022/05/29 15:47:23;;;;;;;;;;;;;;;7.34;90.48;99148.09;6276818;22;19941;-92
2022/05/29 15:50:07;;;;;;;;;;;;;;;7.40;90.66;99141.72;6275669;22;19919;-93
2022/05/29 15:52:35;;;;;;;;;;;;;;;7.37;90.88;99147.09;6277075;22;19911;-93
2022/05/29 15:55:15;;;;;;;;;;;;;;;7.34;90.81;99140.19;6276632;22;19911;-92
2022/05/29 16:01:03;;;;;;;;;;;;;;;7.36;90.96;99138.34;6279608;22;19929;-94
2022/05/29 16:03:30;;;;;;;;;;;;;;;7.38;91.48;99138.28;6280394;22;19919;-93
2022/05/29 16:06:24;;;;;;;;;;;;;;;7.46;91.34;99139.69;6280759;22;19945;-95
2022/05/29 16:08:52;;;;;;;;;;;;;;;7.38;91.24;99143.56;6172363;22;19947;-90
2022/05/29 16:11:31;;;;;;;;;;;;;;;7.38;91.29;99133.88;6307793;22;20357;-93
2022/05/29 16:14:08;;;;;;;;;;;;;;;7.34;91.06;99140.19;6278187;22;19915;-92
2022/05/29 16:16:41;;;;;;;;;;;;;;;7.32;91.11;99135.91;6280123;22;19942;-89
2022/05/29 16:22:28;;;;;;;;;;;;;;;7.28;90.65;99127.25;6306544;22;20384;-91
2022/05/29 16:28:14;;;;;;;;;;;;;;;7.23;90.39;99130.06;6304891;22;19926;-93
2022/05/29 16:31:04;;;;;;;;;;;;;;;7.33;90.30;99125.28;6156533;23;19916;-92
2022/05/29 16:36:20;;;;;;;;;;;;;;;7.41;90.01;99125.84;6305872;22;20330;-88
2022/05/29 16:53:55;;;;;;;;;;;;;;;7.48;89.32;99117.69;6277668;22;19923;-91
2022/05/29 16:57:41;;;;;;;;;;;;;;;;;;;;;
2022/05/29 16:59:43;;;;;;;;;;;;;;;7.43;89.23;99112.59;6157501;23;19947;-90
2022/05/29 17:44:15;;;;;;;;;;;;;;;7.30;88.87;99085.88;6288620;22;19918;-92
2022/05/29 17:49:28;;;;;;;;;;;;;;;7.40;88.63;99089.00;6306213;22;20227;-91
2022/05/29 17:52:12;;;;;;;;;;;;;;;7.24;88.53;99086.13;6277872;22;19963;-92
2022/05/29 17:54:48;;;;;;;;;;;;;;;7.31;88.91;99094.63;6278051;22;19941;-92
2022/05/29 17:57:21;;;;;;;;;;;;;;;7.51;88.06;99091.19;6276028;22;19911;-91
2022/05/29 17:59:50;;;;;;;;;;;;;;;7.52;88.01;99088.50;6305884;22;19922;-94
2022/05/29 18:02:20;;;;;;;;;;;;;;;7.43;88.30;99097.63;6279052;22;19989;-91
2022/05/29 18:04:46;;;;;;;;;;;;;;;7.45;88.40;99087.91;6305549;22;19911;-91
2022/05/29 18:07:12;;;;;;;;;;;;;;;7.42;88.63;99087.19;6306703;22;19910;-92
2022/05/29 18:09:38;;;;;;;;;;;;;;;7.40;88.78;99091.63;6279009;22;19919;-92
2022/05/29 18:12:07;;;;;;;;;;;;;;;7.40;88.92;99095.16;6292378;22;19924;-94
2022/05/29 18:14:33;;;;;;;;;;;;;;;7.56;88.98;99097.13;6278488;22;19924;-94
2022/05/29 18:20:19;;;;;;;;;;;;;;;7.57;89.30;99093.59;6206798;22;19911;-94
2022/05/29 18:22:47;;;;;;;;;;;;;;;7.50;89.29;99100.03;6276103;22;20395;-95
2022/05/29 18:25:16;;;;;;;;;;;;;;;7.45;89.56;99103.72;6275428;22;19911;-93
2022/05/29 18:27:52;;;;;;;;;;;;;;;;;;;;;
2022/05/29 18:30:27;;;;;;;;;;;;;;;;;;;;;
2022/05/29 18:36:11;;;;;;;;;;;;;;;7.58;89.67;99109.34;6272927;22;19922;-93
2022/05/29 18:38:46;;;;;;;;;;;;;;;;;;;;;
2022/05/29 18:41:32;;;;;;;;;;;;;;;7.50;89.34;99116.72;6285812;22;19927;-94
2022/05/29 18:44:02;;;;;;;;;;;;;;;7.54;89.19;99117.44;6279961;22;19977;-95
2022/05/29 18:46:42;;;;;;;;;;;;;;;7.43;89.25;99116.09;6254835;22;19922;-92
2022/05/29 18:49:21;;;;;;;;;;;;;;;7.48;89.73;99122.97;6281354;22;20235;-93
2022/05/29 18:52:00;;;;;;;;;;;;;;;7.45;89.45;99124.81;6288910;22;20319;-95
2022/05/29 18:57:22;;;;;;;;;;;;;;;7.44;89.53;99122.22;6218939;22;19911;-94
2022/05/29 18:59:48;;;;;;;;;;;;;;;7.42;89.38;99132.00;6281361;22;19999;-94
2022/05/29 19:02:35;;;;;;;;;;;;;;;7.40;89.55;99132.06;6286477;22;19972;-95
2022/05/29 19:05:17;;;;;;;;;;;;;;;7.39;89.32;99138.22;6281537;22;19918;-93
2022/05/29 19:08:05;;;;;;;;;;;;;;;7.39;89.57;99134.75;6277712;22;19919;-95
2022/05/29 19:10:31;;;;;;;;;;;;;;;7.39;89.61;99130.31;6283515;22;19911;-95
2022/05/29 19:12:56;;;;;;;;;;;;;;;7.34;89.46;99127.03;6285856;22;19941;-95
2022/05/29 19:15:21;;;;;;;;;;;;;;;7.37;90.01;99131.28;6282087;22;19915;-96
2022/05/29 19:18:12;;;;;;;;;;;;;;;7.37;89.91;99132.16;6282282;22;19911;-95
2022/05/29 19:20:38;;;;;;;;;;;;;;;7.28;89.79;99132.53;6286183;22;19911;-94
2022/05/29 19:23:04;;;;;;;;;;;;;;;7.30;89.94;99130.69;6282998;22;19916;-96
2022/05/29 19:25:29;;;;;;;;;;;;;;;7.33;89.96;99140.25;6291392;22;19980;-95
2022/05/29 19:27:55;;;;;;;;;;;;;;;7.27;89.92;99136.97;6278937;22;19911;-95
2022/05/29 19:30:23;;;;;;;;;;;;;;;7.26;90.15;99148.41;6283170;22;19895;-95
2022/05/29 19:32:49;;;;;;;;;;;;;;;7.35;90.30;99154.22;6280151;22;19911;-93
2022/05/29 19:35:16;;;;;;;;;;;;;;;7.25;89.89;99148.47;6282695;22;19912;-93
2022/05/29 19:37:47;;;;;;;;;;;;;;;7.32;90.01;99157.81;6283705;22;19912;-92
2022/05/29 20:06:10;;;;;;;;;;;;;;;;;;;;;
2022/05/29 20:14:52;;;;;;;;;;;;;;;7.25;90.19;99182.72;6021661;23;19945;-87
2022/05/29 20:17:53;;;;;;;;;;;;;;;7.19;90.06;99190.84;6210640;23;19923;-92
2022/05/29 20:48:18;;;;;;;;;;;;;;;7.12;90.35;99184.97;6122694;23;19920;-91
2022/05/29 20:53:59;;;;;;;;;;;;;;;7.12;90.13;99178.84;6122852;23;20334;-93
2022/05/29 20:59:55;;;;;;;;;;;;;;;;;;;;;
2022/05/29 21:12:04;;;;;;;;;;;;;;;7.05;90.05;99184.34;6036149;23;19936;-90
2022/05/29 21:33:07;;;;;;;;;;;;;;;6.94;90.11;99178.63;6273612;22;20339;-90
2022/05/29 21:39:02;;;;;;;;;;;;;;;6.97;90.21;99175.84;6151635;23;19913;-90
2022/05/29 21:45:00;;;;;;;;;;;;;;;;;;;;;
2022/05/29 23:00:09;;;;;;;;;;;;;;;;;;;;;
